ロングイェールビーン の空港の天気 - METARとTAF

スヴァールバル空港 ( ENSB / LYR ) - スヴァールバル諸島・ヤンマイエン島 ロングイェールビーン
飛行場実況気象(Metar)
観測時間05/28 13:50 CEST (05/28 11:50 UTC)
風向・風速南東 6m/s
視程10km以上
天気現象
全天の4割程度の雲 雲底高度 760m
気温-3℃
湿度59%
気圧1020hPa
METARENSB 281150Z 13011KT 9999 SCT025 M03/M10 Q1020 RMK WIND 1400FT 12012KT
過去の天気等 Google飛行場航空写真 Wunderground天気予報

過去48時間のMETAR

飛行場予報(TAF)
発表時間: -
TAF ENSB 2812/2912 12010KT 9999 FEW020 SCT040